Weather at Bartholomä-Amalienhof Airfield

Public forecast

Using degrees Celsius for public forecast. Weather courtesy of forecast.io.

Closest aviation weather report (METAR) to Bartholomä-Amalienhof Airfield

Closest report is Adolf Würth Airport, 24.0 nm (44.4 km) NNW.

2024/07/18 16:50 (retrieved 11 minutes ago)

EDTY 181650Z VRB02KT CAVOK 26/14 Q1021

Closest aviation forecast (TAF) to Bartholomä-Amalienhof Airfield

Closest forecast is Stuttgart Airport, 31.2 nm (57.8 km) W.

2024/07/18 12:27 (retrieved 5 hours ago)

TAF TAF EDDS 181100Z 1812/1912 06005KT 9999 FEW040 BECMG 1817/1820 VRB03KT